createdAt,value
2022-10-05T00:00:21.345Z,7.30
2022-10-05T00:02:50.610Z,7.30
2022-10-05T00:05:27.701Z,7.30
2022-10-05T00:07:56.490Z,7.20
2022-10-05T00:10:24.153Z,7.30
2022-10-05T00:12:51.121Z,7.30
2022-10-05T00:15:24.076Z,7.30
2022-10-05T00:17:51.205Z,7.30
2022-10-05T00:20:26.509Z,7.30
2022-10-05T00:22:58.061Z,7.30
2022-10-05T00:25:25.525Z,7.40
2022-10-05T00:28:01.347Z,7.40
2022-10-05T00:30:34.052Z,7.40
2022-10-05T00:33:00.996Z,7.40
2022-10-05T00:35:29.525Z,7.40
2022-10-05T00:37:56.892Z,7.30
2022-10-05T00:40:59.723Z,7.40
2022-10-05T00:44:00.869Z,7.40
2022-10-05T00:46:55.598Z,7.40
2022-10-05T00:49:48.648Z,7.40
2022-10-05T00:52:23.665Z,7.40
2022-10-05T00:54:56.946Z,7.40
2022-10-05T00:57:41.563Z,7.30
2022-10-05T01:00:17.016Z,7.30
2022-10-05T01:03:02.854Z,7.30
2022-10-05T01:05:32.606Z,7.20
2022-10-05T01:08:13.392Z,7.20
2022-10-05T01:10:47.682Z,7.20
2022-10-05T01:13:29.643Z,7.10
2022-10-05T01:16:04.402Z,7.10
2022-10-05T01:19:03.697Z,7.10
2022-10-05T01:21:37.001Z,7.10
2022-10-05T01:24:29.296Z,7.00
2022-10-05T01:27:44.639Z,7.00
2022-10-05T01:30:18.754Z,7.00
2022-10-05T01:33:12.584Z,7.00
2022-10-05T01:35:59.170Z,7.00
2022-10-05T01:39:01.591Z,7.00
2022-10-05T01:41:36.803Z,6.90
2022-10-05T01:44:07.997Z,6.90
2022-10-05T01:46:46.104Z,6.90
2022-10-05T01:49:28.365Z,6.80
2022-10-05T01:52:10.200Z,6.80
2022-10-05T01:55:04.075Z,6.80
2022-10-05T01:57:44.180Z,6.80
2022-10-05T02:00:14.981Z,6.80
2022-10-05T02:02:57.364Z,6.80
2022-10-05T02:05:38.195Z,6.80
2022-10-05T02:08:15.465Z,6.80
2022-10-05T02:10:58.368Z,6.80
2022-10-05T02:14:00.685Z,6.70
2022-10-05T02:16:43.092Z,6.70
2022-10-05T02:19:48.574Z,6.70
2022-10-05T02:22:22.504Z,6.70
2022-10-05T02:24:55.664Z,6.60
2022-10-05T02:27:28.462Z,6.60
2022-10-05T02:30:01.482Z,6.60
2022-10-05T02:32:35.219Z,6.60
2022-10-05T02:35:12.150Z,6.60
2022-10-05T02:38:05.216Z,6.60
2022-10-05T02:41:09.186Z,6.60
2022-10-05T02:44:09.756Z,6.60
2022-10-05T02:46:43.223Z,6.60
2022-10-05T02:49:29.103Z,6.60
2022-10-05T02:52:23.184Z,6.50
2022-10-05T02:55:00.774Z,6.60
2022-10-05T02:57:47.255Z,6.50
2022-10-05T03:00:17.094Z,6.40
2022-10-05T03:03:02.803Z,6.40
2022-10-05T03:05:54.391Z,6.50
2022-10-05T03:08:33.467Z,6.40
2022-10-05T03:11:22.595Z,6.40
2022-10-05T03:14:15.434Z,6.40
2022-10-05T03:17:09.594Z,6.40
2022-10-05T03:20:04.667Z,6.20
2022-10-05T03:22:44.653Z,6.20
2022-10-05T03:25:26.488Z,6.20
2022-10-05T03:28:01.628Z,6.10
2022-10-05T03:30:49.158Z,6.00
2022-10-05T03:33:38.326Z,5.90
2022-10-05T03:36:14.100Z,6.00
2022-10-05T03:38:43.695Z,5.90
2022-10-05T03:41:21.924Z,5.90
2022-10-05T03:43:55.038Z,5.80
2022-10-05T03:46:30.846Z,5.80
2022-10-05T03:49:02.949Z,5.80
2022-10-05T03:51:39.767Z,5.80
2022-10-05T03:54:19.704Z,5.80
2022-10-05T03:57:00.768Z,5.70
2022-10-05T03:59:33.857Z,5.70
2022-10-05T04:02:04.767Z,5.60
2022-10-05T04:04:47.044Z,5.60
2022-10-05T04:07:36.592Z,5.60
2022-10-05T04:10:10.597Z,5.60
2022-10-05T04:12:42.690Z,5.60
2022-10-05T04:15:23.700Z,5.50
2022-10-05T04:17:56.253Z,5.60
2022-10-05T04:20:29.337Z,5.60
2022-10-05T04:23:05.445Z,5.60
2022-10-05T04:25:35.937Z,5.50
2022-10-05T04:28:02.862Z,5.50
2022-10-05T04:30:33.760Z,5.40
2022-10-05T04:33:01.684Z,5.40
2022-10-05T04:35:47.311Z,5.30
2022-10-05T04:38:23.276Z,5.30
2022-10-05T04:40:53.356Z,5.30
2022-10-05T04:43:28.797Z,5.40
2022-10-05T04:46:15.311Z,5.40
2022-10-05T04:49:04.002Z,5.40
2022-10-05T04:51:52.229Z,5.40
2022-10-05T04:54:37.892Z,5.40
2022-10-05T04:57:12.758Z,5.40
2022-10-05T04:59:54.798Z,5.50
2022-10-05T05:03:15.885Z,5.60
2022-10-05T05:06:17.974Z,5.60
2022-10-05T05:09:03.627Z,5.60
2022-10-05T05:11:49.351Z,5.60
2022-10-05T05:14:38.189Z,5.60
2022-10-05T05:17:33.096Z,5.60
2022-10-05T05:20:20.963Z,5.70
2022-10-05T05:22:47.963Z,5.70
2022-10-05T05:25:37.450Z,5.80
2022-10-05T05:28:42.779Z,5.90
2022-10-05T05:31:28.761Z,5.90
2022-10-05T05:34:52.974Z,5.90
2022-10-05T05:38:10.213Z,5.90
2022-10-05T05:41:17.443Z,5.90
2022-10-05T05:43:53.588Z,5.90
2022-10-05T05:46:51.552Z,6.00
2022-10-05T05:49:37.697Z,6.00
2022-10-05T05:52:12.967Z,6.10
2022-10-05T05:54:56.803Z,6.20
2022-10-05T05:57:28.164Z,6.40
2022-10-05T06:00:22.757Z,6.50
2022-10-05T06:03:03.898Z,6.60
2022-10-05T06:05:38.362Z,6.80
2022-10-05T06:08:20.529Z,7.00
2022-10-05T06:10:56.777Z,7.20
2022-10-05T06:13:44.344Z,7.30
2022-10-05T06:16:35.650Z,7.50
2022-10-05T06:19:22.067Z,7.70
2022-10-05T06:21:55.819Z,7.80
2022-10-05T06:25:04.633Z,8.00
2022-10-05T06:27:38.568Z,8.30
2022-10-05T06:30:16.404Z,8.40
2022-10-05T06:32:43.277Z,8.50
2022-10-05T06:35:23.147Z,8.50
2022-10-05T06:38:18.066Z,8.60
2022-10-05T06:41:11.381Z,8.60
2022-10-05T06:43:56.389Z,8.60
2022-10-05T06:46:40.285Z,8.80
2022-10-05T06:49:16.128Z,9.00
2022-10-05T06:52:01.904Z,9.30
2022-10-05T06:54:52.819Z,9.70
2022-10-05T06:57:57.812Z,10.10
2022-10-05T07:00:48.896Z,10.50
2022-10-05T07:03:31.446Z,10.90
2022-10-05T07:06:15.618Z,11.40
2022-10-05T07:09:04.446Z,11.90
2022-10-05T07:11:59.639Z,12.40
2022-10-05T07:14:46.184Z,12.90
2022-10-05T07:17:45.720Z,14.00
2022-10-05T07:20:31.381Z,14.90
2022-10-05T07:23:19.805Z,15.80
2022-10-05T07:25:51.827Z,15.90
2022-10-05T07:28:31.060Z,15.60
2022-10-05T07:31:10.278Z,15.40
2022-10-05T07:34:02.441Z,15.30
2022-10-05T07:37:09.446Z,15.50
2022-10-05T07:40:16.002Z,15.50
2022-10-05T07:43:18.675Z,15.60
2022-10-05T07:45:53.496Z,15.70
2022-10-05T07:48:33.226Z,15.20
2022-10-05T07:51:07.465Z,15.00
2022-10-05T07:53:41.677Z,15.00
2022-10-05T07:56:24.970Z,15.10
2022-10-05T07:58:59.207Z,15.40
2022-10-05T08:01:34.557Z,15.30
2022-10-05T08:04:04.727Z,15.00
2022-10-05T08:07:03.943Z,14.70
2022-10-05T08:09:33.751Z,14.60
2022-10-05T08:12:28.550Z,14.40
2022-10-05T08:14:59.043Z,14.40
2022-10-05T08:18:00.147Z,14.40
2022-10-05T08:20:39.104Z,14.50
2022-10-05T08:23:38.760Z,14.60
2022-10-05T08:26:24.391Z,14.80
2022-10-05T08:29:13.959Z,14.90
2022-10-05T08:31:48.999Z,14.90
2022-10-05T08:35:04.154Z,15.00
2022-10-05T08:37:35.766Z,15.30
2022-10-05T08:40:02.988Z,15.10
2022-10-05T08:43:11.162Z,15.00
2022-10-05T08:45:59.021Z,15.20
2022-10-05T08:48:54.050Z,15.30
2022-10-05T08:51:37.504Z,15.40
2022-10-05T08:54:16.347Z,15.60
2022-10-05T08:56:46.899Z,15.70
2022-10-05T08:59:47.776Z,15.80
2022-10-05T09:02:52.254Z,15.90
2022-10-05T09:05:38.530Z,15.90
2022-10-05T09:08:40.101Z,15.90
2022-10-05T09:11:26.321Z,16.10
2022-10-05T09:14:19.196Z,16.20
2022-10-05T09:17:04.361Z,16.30
2022-10-05T09:20:08.682Z,16.50
2022-10-05T09:22:54.462Z,16.70
2022-10-05T09:25:29.502Z,17.00
2022-10-05T09:28:09.705Z,17.20
2022-10-05T09:30:58.094Z,17.30
2022-10-05T09:33:43.957Z,17.50
2022-10-05T09:36:35.433Z,17.40
2022-10-05T09:39:14.556Z,17.70
2022-10-05T09:42:03.047Z,18.00
2022-10-05T09:44:53.184Z,18.30
2022-10-05T09:47:41.774Z,18.60
2022-10-05T09:50:45.572Z,18.50
2022-10-05T09:53:32.368Z,18.80
2022-10-05T09:56:09.467Z,18.70
2022-10-05T09:58:39.371Z,18.80
2022-10-05T10:01:36.365Z,19.00
2022-10-05T10:04:40.855Z,19.20
2022-10-05T10:07:16.854Z,19.20
2022-10-05T10:09:52.771Z,19.30
2022-10-05T10:12:37.780Z,19.20
2022-10-05T10:15:16.995Z,19.30
2022-10-05T10:18:05.764Z,19.10
2022-10-05T10:20:59.413Z,18.90
2022-10-05T10:23:35.197Z,19.00
2022-10-05T10:26:39.666Z,19.20
2022-10-05T10:29:36.790Z,19.30
2022-10-05T10:32:19.474Z,19.10
2022-10-05T10:34:50.182Z,19.00
2022-10-05T10:37:42.533Z,19.10
2022-10-05T10:40:49.200Z,19.20
2022-10-05T10:43:39.376Z,19.40
2022-10-05T10:46:27.320Z,19.50
2022-10-05T10:49:12.284Z,19.30
2022-10-05T10:52:21.899Z,19.30
2022-10-05T10:55:07.211Z,19.00
2022-10-05T10:57:45.654Z,18.80
2022-10-05T11:00:23.506Z,19.00
2022-10-05T11:03:26.222Z,19.30
2022-10-05T11:06:41.470Z,19.50
2022-10-05T11:09:09.463Z,19.70
2022-10-05T11:11:53.411Z,20.00
2022-10-05T11:14:32.657Z,20.30
2022-10-05T11:17:29.810Z,20.40
2022-10-05T11:20:03.987Z,20.70
2022-10-05T11:22:47.091Z,20.80
2022-10-05T11:25:33.703Z,21.00
2022-10-05T11:28:19.635Z,21.10
2022-10-05T11:31:00.439Z,21.20
2022-10-05T11:33:30.435Z,21.40
2022-10-05T11:36:28.611Z,21.50
2022-10-05T11:39:06.291Z,21.70
2022-10-05T11:42:00.310Z,21.90
2022-10-05T11:44:59.774Z,21.90
2022-10-05T11:47:48.618Z,22.00
2022-10-05T11:50:24.641Z,21.70
2022-10-05T11:52:58.663Z,21.50
2022-10-05T11:55:57.739Z,21.50
2022-10-05T11:58:43.857Z,21.70
2022-10-05T12:01:38.504Z,21.70
2022-10-05T12:04:11.368Z,21.70
2022-10-05T12:07:03.066Z,21.80
2022-10-05T12:10:17.407Z,21.60
2022-10-05T12:12:50.315Z,21.70
2022-10-05T12:15:23.542Z,21.80
2022-10-05T12:18:14.410Z,21.80
2022-10-05T12:20:49.617Z,21.80
2022-10-05T12:23:38.581Z,21.80
2022-10-05T12:26:11.213Z,21.70
2022-10-05T12:28:49.814Z,21.80
2022-10-05T12:31:25.615Z,21.80
2022-10-05T12:34:11.431Z,21.80
2022-10-05T12:37:17.635Z,21.80
2022-10-05T12:40:06.258Z,21.60
2022-10-05T12:42:50.579Z,21.60
2022-10-05T12:45:32.886Z,21.60
2022-10-05T12:48:21.793Z,21.60
2022-10-05T12:50:50.539Z,21.70
2022-10-05T12:53:33.265Z,21.80
2022-10-05T12:56:10.191Z,21.50
2022-10-05T12:59:02.191Z,21.30
2022-10-05T13:01:39.982Z,21.20
2022-10-05T13:04:19.424Z,21.20
2022-10-05T13:07:12.379Z,21.20
2022-10-05T13:09:57.033Z,21.30
2022-10-05T13:12:41.940Z,21.40
2022-10-05T13:15:18.318Z,21.50
2022-10-05T13:18:11.916Z,21.70
2022-10-05T13:20:57.133Z,21.80
2022-10-05T13:23:57.106Z,21.90
2022-10-05T13:26:36.143Z,22.00
2022-10-05T13:29:14.686Z,22.20
2022-10-05T13:31:58.466Z,22.30
2022-10-05T13:34:34.891Z,22.30
2022-10-05T13:37:25.467Z,22.40
2022-10-05T13:40:22.625Z,22.30
2022-10-05T13:43:00.010Z,22.20
2022-10-05T13:45:32.205Z,22.30
2022-10-05T13:48:07.304Z,22.40
2022-10-05T13:50:43.287Z,22.70
2022-10-05T13:53:24.700Z,22.60
2022-10-05T13:55:58.934Z,22.70
2022-10-05T13:58:44.656Z,22.60
2022-10-05T14:01:29.939Z,22.40
2022-10-05T14:04:20.847Z,22.50
2022-10-05T14:06:49.002Z,22.60
2022-10-05T14:09:36.189Z,22.60
2022-10-05T14:12:03.131Z,22.60
2022-10-05T14:14:42.164Z,22.60
2022-10-05T14:17:42.980Z,22.50
2022-10-05T14:20:34.340Z,22.40
2022-10-05T14:23:17.297Z,22.50
2022-10-05T14:25:54.238Z,22.50
2022-10-05T14:28:29.556Z,22.60
2022-10-05T14:31:00.116Z,22.70
2022-10-05T14:33:30.692Z,22.60
2022-10-05T14:35:59.445Z,22.60
2022-10-05T14:38:35.433Z,22.50
2022-10-05T14:41:08.554Z,22.70
2022-10-05T14:43:37.001Z,22.60
2022-10-05T14:46:23.279Z,22.60
2022-10-05T14:49:13.320Z,22.40
2022-10-05T14:51:42.356Z,22.30
2022-10-05T14:54:36.122Z,22.30
2022-10-05T14:57:13.159Z,22.30
2022-10-05T15:00:04.098Z,22.30
2022-10-05T15:02:52.859Z,22.20
2022-10-05T15:05:47.766Z,22.20
2022-10-05T15:08:22.370Z,22.00
2022-10-05T15:11:17.278Z,21.90
2022-10-05T15:13:48.673Z,21.80
2022-10-05T15:16:23.040Z,21.70
2022-10-05T15:19:13.565Z,21.50
2022-10-05T15:21:50.079Z,21.40
2022-10-05T15:24:34.707Z,21.30
2022-10-05T15:27:06.124Z,21.20
2022-10-05T15:30:18.273Z,21.10
2022-10-05T15:32:55.550Z,21.00
2022-10-05T15:35:37.358Z,20.90
2022-10-05T15:38:21.070Z,20.90
2022-10-05T15:41:11.174Z,20.80
2022-10-05T15:43:47.141Z,20.70
2022-10-05T15:46:24.011Z,20.60
2022-10-05T15:49:27.830Z,20.60
2022-10-05T15:52:17.796Z,20.60
2022-10-05T15:54:56.746Z,20.60
2022-10-05T15:57:42.017Z,20.60
2022-10-05T16:00:14.818Z,20.50
2022-10-05T16:02:42.365Z,20.40
2022-10-05T16:05:56.072Z,20.40
2022-10-05T16:08:41.951Z,20.30
2022-10-05T16:11:19.184Z,20.20
2022-10-05T16:14:00.051Z,20.20
2022-10-05T16:17:00.914Z,20.00
2022-10-05T16:19:54.160Z,19.80
2022-10-05T16:22:44.151Z,19.60
2022-10-05T16:25:25.172Z,19.40
2022-10-05T16:28:18.127Z,19.20
2022-10-05T16:31:16.486Z,19.10
2022-10-05T16:34:07.917Z,18.90
2022-10-05T16:36:54.722Z,18.70
2022-10-05T16:39:39.840Z,18.50
2022-10-05T16:42:27.238Z,18.30
2022-10-05T16:45:17.048Z,18.10
2022-10-05T16:47:50.129Z,17.90
2022-10-05T16:50:49.032Z,17.70
2022-10-05T16:53:24.971Z,17.60
2022-10-05T16:56:09.205Z,17.40
2022-10-05T16:58:51.195Z,17.30
2022-10-05T17:01:29.167Z,17.10
2022-10-05T17:04:01.849Z,17.10
2022-10-05T17:07:13.775Z,17.00
2022-10-05T17:09:52.703Z,16.90
2022-10-05T17:13:03.190Z,16.70
2022-10-05T17:15:56.827Z,16.60
2022-10-05T17:19:09.048Z,16.40
2022-10-05T17:21:46.307Z,16.30
2022-10-05T17:24:35.324Z,16.10
2022-10-05T17:27:33.485Z,16.00
2022-10-05T17:30:22.449Z,15.80
2022-10-05T17:32:57.548Z,15.70
2022-10-05T17:35:52.209Z,15.60
2022-10-05T17:38:41.809Z,15.50
2022-10-05T17:41:26.867Z,15.40
2022-10-05T17:44:16.498Z,15.40
2022-10-05T17:46:57.747Z,15.20
2022-10-05T17:49:43.178Z,15.20
2022-10-05T17:53:02.700Z,15.10
2022-10-05T17:55:45.785Z,15.00
2022-10-05T17:58:27.612Z,14.90
2022-10-05T18:01:07.178Z,14.80
2022-10-05T18:03:44.254Z,14.80
2022-10-05T18:06:28.388Z,14.70
2022-10-05T18:09:21.878Z,14.70
2022-10-05T18:12:19.137Z,14.70
2022-10-05T18:15:03.312Z,14.70
2022-10-05T18:17:46.411Z,14.60
2022-10-05T18:20:45.862Z,14.50
2022-10-05T18:23:13.614Z,14.40
2022-10-05T18:25:43.610Z,14.50
2022-10-05T18:28:39.982Z,14.40
2022-10-05T18:31:29.115Z,14.30
2022-10-05T18:34:18.042Z,14.20
2022-10-05T18:37:10.093Z,14.10
2022-10-05T18:40:08.766Z,14.10
2022-10-05T18:43:15.939Z,14.00
2022-10-05T18:45:54.328Z,13.90
2022-10-05T18:49:06.475Z,13.90
2022-10-05T18:52:03.485Z,13.90
2022-10-05T18:55:08.562Z,13.80
2022-10-05T18:57:58.350Z,13.80
2022-10-05T19:00:31.833Z,13.80
2022-10-05T19:03:37.860Z,13.80
2022-10-05T19:06:22.301Z,13.80
2022-10-05T19:08:58.378Z,13.70
2022-10-05T19:11:56.908Z,13.80
2022-10-05T19:14:42.540Z,13.80
2022-10-05T19:17:30.742Z,13.70
2022-10-05T19:20:06.580Z,13.70
2022-10-05T19:22:52.287Z,13.70
2022-10-05T19:25:37.988Z,13.70
2022-10-05T19:28:20.644Z,13.60
2022-10-05T19:31:01.755Z,13.60
2022-10-05T19:33:49.684Z,13.60
2022-10-05T19:36:32.114Z,13.60
2022-10-05T19:39:25.055Z,13.60
2022-10-05T19:41:54.829Z,13.60
2022-10-05T19:44:42.648Z,13.60
2022-10-05T19:47:18.686Z,13.60
2022-10-05T19:49:58.718Z,13.60
2022-10-05T19:52:46.374Z,13.60
2022-10-05T19:55:22.540Z,13.60
2022-10-05T19:58:00.667Z,13.50
2022-10-05T20:00:33.965Z,13.40
2022-10-05T20:03:26.542Z,13.50
2022-10-05T20:06:01.465Z,13.40
2022-10-05T20:08:37.502Z,13.40
2022-10-05T20:11:06.231Z,13.40
2022-10-05T20:13:35.250Z,13.30
2022-10-05T20:16:35.832Z,13.40
2022-10-05T20:19:42.334Z,13.40
2022-10-05T20:22:32.898Z,13.30
2022-10-05T20:25:24.864Z,13.30
2022-10-05T20:27:55.552Z,13.30
2022-10-05T20:30:28.258Z,13.30
2022-10-05T20:33:01.666Z,13.30
2022-10-05T20:35:32.378Z,13.30
2022-10-05T20:38:00.075Z,13.30
2022-10-05T20:40:29.320Z,13.30
2022-10-05T20:42:57.254Z,13.20
2022-10-05T20:45:24.647Z,13.20
2022-10-05T20:47:51.541Z,13.10
2022-10-05T20:50:18.688Z,13.10
2022-10-05T20:52:46.089Z,13.00
2022-10-05T20:55:13.135Z,13.00
2022-10-05T20:57:42.291Z,13.00
2022-10-05T21:00:11.432Z,12.90
2022-10-05T21:02:39.598Z,12.90
2022-10-05T21:05:07.851Z,12.80
2022-10-05T21:07:35.350Z,12.80
2022-10-05T21:10:03.867Z,12.70
2022-10-05T21:12:31.193Z,12.60
2022-10-05T21:14:59.850Z,12.60
2022-10-05T21:17:26.879Z,12.50
2022-10-05T21:19:53.841Z,12.50
2022-10-05T21:22:20.880Z,12.50
2022-10-05T21:24:48.693Z,12.50
2022-10-05T21:27:15.934Z,12.50
2022-10-05T21:29:44.332Z,12.50
2022-10-05T21:32:12.006Z,12.40
2022-10-05T21:34:40.238Z,12.40
2022-10-05T21:37:08.468Z,12.40
2022-10-05T21:39:36.733Z,12.40
2022-10-05T21:42:04.567Z,12.40
2022-10-05T21:44:31.598Z,12.40
2022-10-05T21:46:58.847Z,12.40
2022-10-05T21:49:26.584Z,12.50
2022-10-05T21:51:54.629Z,12.50
2022-10-05T21:54:23.852Z,12.50
2022-10-05T21:56:54.307Z,12.50
2022-10-05T21:59:24.114Z,12.50
2022-10-05T22:01:51.065Z,12.40
2022-10-05T22:04:17.954Z,12.40
2022-10-05T22:06:44.929Z,12.30
2022-10-05T22:09:12.483Z,12.20
2022-10-05T22:11:39.541Z,12.20
2022-10-05T22:14:06.653Z,12.10
2022-10-05T22:16:36.704Z,12.10
2022-10-05T22:19:06.805Z,12.00
2022-10-05T22:21:38.263Z,12.00
2022-10-05T22:24:05.516Z,12.00
2022-10-05T22:26:33.243Z,12.00
2022-10-05T22:29:01.863Z,12.00
2022-10-05T22:31:29.091Z,12.00
2022-10-05T22:33:56.010Z,11.90
2022-10-05T22:36:23.549Z,11.90
2022-10-05T22:38:50.619Z,11.80
2022-10-05T22:41:20.670Z,11.70
2022-10-05T22:43:50.267Z,11.70
2022-10-05T22:46:17.828Z,11.70
2022-10-05T22:48:44.995Z,11.60
2022-10-05T22:51:12.312Z,11.60
2022-10-05T22:53:39.322Z,11.50
2022-10-05T22:56:11.696Z,11.50
2022-10-05T22:58:39.239Z,11.50
2022-10-05T23:01:08.583Z,11.40
2022-10-05T23:03:35.782Z,11.40
2022-10-05T23:06:14.171Z,11.30
2022-10-05T23:08:41.927Z,11.20
2022-10-05T23:11:11.810Z,11.20
2022-10-05T23:13:39.316Z,11.20
2022-10-05T23:16:16.202Z,11.10
2022-10-05T23:18:43.972Z,11.20
2022-10-05T23:21:11.611Z,11.20
2022-10-05T23:23:40.747Z,11.20
2022-10-05T23:26:10.162Z,11.20
2022-10-05T23:28:49.565Z,11.10
2022-10-05T23:31:19.687Z,11.00
2022-10-05T23:33:46.770Z,11.10
2022-10-05T23:36:20.030Z,11.00
2022-10-05T23:38:47.995Z,11.00
2022-10-05T23:41:16.186Z,11.00
2022-10-05T23:43:43.791Z,11.00
2022-10-05T23:46:10.885Z,11.00
2022-10-05T23:48:40.962Z,11.00
2022-10-05T23:51:10.296Z,11.00
2022-10-05T23:53:37.554Z,11.00
2022-10-05T23:56:04.673Z,11.00
2022-10-05T23:58:32.118Z,11.10
